sensor_id;sensor_type;location;lat;lon;timestamp;pressure;altitude;pressure_sealevel;temperature;humidity
27210;BME280;14721;42.668;23.386;2023-05-12T00:00:57;95568.69;;;9.97;74.79
27210;BME280;14721;42.668;23.386;2023-05-12T00:03:23;95570.72;;;9.94;74.35
27210;BME280;14721;42.668;23.386;2023-05-12T00:05:49;95586.28;;;9.87;74.69
27210;BME280;14721;42.668;23.386;2023-05-12T00:08:14;95577.09;;;9.91;74.77
27210;BME280;14721;42.668;23.386;2023-05-12T00:10:40;95566.53;;;9.90;74.55
27210;BME280;14721;42.668;23.386;2023-05-12T00:13:06;95573.03;;;9.86;75.04
27210;BME280;14721;42.668;23.386;2023-05-12T00:15:33;95576.13;;;9.80;75.14
27210;BME280;14721;42.668;23.386;2023-05-12T00:17:58;95582.19;;;9.69;75.61
27210;BME280;14721;42.668;23.386;2023-05-12T00:20:24;95579.16;;;9.61;76.30
27210;BME280;14721;42.668;23.386;2023-05-12T00:22:49;95569.00;;;9.53;76.30
27210;BME280;14721;42.668;23.386;2023-05-12T00:25:15;95584.47;;;9.48;76.56
27210;BME280;14721;42.668;23.386;2023-05-12T00:27:41;95583.00;;;9.57;76.85
27210;BME280;14721;42.668;23.386;2023-05-12T00:30:07;95579.34;;;9.58;76.58
27210;BME280;14721;42.668;23.386;2023-05-12T00:32:32;95582.63;;;9.49;76.95
27210;BME280;14721;42.668;23.386;2023-05-12T00:34:58;95580.03;;;9.35;77.47
27210;BME280;14721;42.668;23.386;2023-05-12T00:37:24;95570.97;;;9.37;77.62
27210;BME280;14721;42.668;23.386;2023-05-12T00:39:49;95583.53;;;9.35;77.80
27210;BME280;14721;42.668;23.386;2023-05-12T00:42:15;95580.13;;;9.33;78.25
27210;BME280;14721;42.668;23.386;2023-05-12T00:44:40;95586.88;;;9.39;78.03
27210;BME280;14721;42.668;23.386;2023-05-12T00:47:07;95580.75;;;9.37;77.92
27210;BME280;14721;42.668;23.386;2023-05-12T00:49:33;95586.91;;;9.25;78.61
27210;BME280;14721;42.668;23.386;2023-05-12T00:52:01;95581.75;;;9.22;78.78
27210;BME280;14721;42.668;23.386;2023-05-12T00:54:28;95582.16;;;9.16;79.39
27210;BME280;14721;42.668;23.386;2023-05-12T00:56:54;95596.16;;;9.19;79.95
27210;BME280;14721;42.668;23.386;2023-05-12T00:59:20;95595.09;;;9.22;79.94
27210;BME280;14721;42.668;23.386;2023-05-12T01:01:47;95590.16;;;9.16;80.13
27210;BME280;14721;42.668;23.386;2023-05-12T01:04:14;95592.81;;;9.16;79.98
27210;BME280;14721;42.668;23.386;2023-05-12T01:09:05;95592.31;;;8.97;81.60
27210;BME280;14721;42.668;23.386;2023-05-12T01:11:31;95595.84;;;8.83;82.85
27210;BME280;14721;42.668;23.386;2023-05-12T01:13:57;95603.19;;;8.66;84.85
27210;BME280;14721;42.668;23.386;2023-05-12T01:16:26;95587.66;;;8.44;86.15
27210;BME280;14721;42.668;23.386;2023-05-12T01:18:54;95599.84;;;8.34;88.05
27210;BME280;14721;42.668;23.386;2023-05-12T01:21:20;95596.88;;;8.25;89.48
27210;BME280;14721;42.668;23.386;2023-05-12T01:23:55;95593.03;;;8.15;91.01
27210;BME280;14721;42.668;23.386;2023-05-12T01:26:22;95599.75;;;8.06;91.80
27210;BME280;14721;42.668;23.386;2023-05-12T01:28:49;95606.66;;;7.95;93.49
27210;BME280;14721;42.668;23.386;2023-05-12T01:31:16;95595.72;;;7.85;95.09
27210;BME280;14721;42.668;23.386;2023-05-12T01:33:42;95603.97;;;7.81;96.55
27210;BME280;14721;42.668;23.386;2023-05-12T01:36:07;95599.19;;;7.71;97.34
27210;BME280;14721;42.668;23.386;2023-05-12T01:38:33;95601.38;;;7.65;97.96
27210;BME280;14721;42.668;23.386;2023-05-12T01:40:59;95600.84;;;7.58;99.67
27210;BME280;14721;42.668;23.386;2023-05-12T01:43:24;95595.63;;;7.57;99.99
27210;BME280;14721;42.668;23.386;2023-05-12T01:45:50;95591.09;;;7.59;100.00
27210;BME280;14721;42.668;23.386;2023-05-12T01:48:15;95593.59;;;7.46;100.00
27210;BME280;14721;42.668;23.386;2023-05-12T01:50:41;95590.44;;;7.40;100.00
27210;BME280;14721;42.668;23.386;2023-05-12T01:53:07;95599.19;;;7.42;100.00
27210;BME280;14721;42.668;23.386;2023-05-12T01:55:35;95591.03;;;7.45;100.00
27210;BME280;14721;42.668;23.386;2023-05-12T01:58:01;95591.38;;;7.39;100.00
27210;BME280;14721;42.668;23.386;2023-05-12T02:00:26;95598.06;;;7.46;100.00
27210;BME280;14721;42.668;23.386;2023-05-12T02:02:52;95601.38;;;7.49;100.00
27210;BME280;14721;42.668;23.386;2023-05-12T02:05:17;95593.13;;;7.40;100.00
27210;BME280;14721;42.668;23.386;2023-05-12T02:07:43;95602.34;;;7.33;100.00
27210;BME280;14721;42.668;23.386;2023-05-12T02:10:09;95599.69;;;7.33;100.00
27210;BME280;14721;42.668;23.386;2023-05-12T02:12:34;95597.31;;;7.28;100.00
27210;BME280;14721;42.668;23.386;2023-05-12T02:15:00;95607.94;;;7.28;100.00
27210;BME280;14721;42.668;23.386;2023-05-12T02:17:26;95590.72;;;7.20;100.00
27210;BME280;14721;42.668;23.386;2023-05-12T02:19:53;95599.31;;;7.25;100.00
27210;BME280;14721;42.668;23.386;2023-05-12T02:22:18;95595.78;;;7.24;100.00
27210;BME280;14721;42.668;23.386;2023-05-12T02:24:44;95599.22;;;7.26;100.00
27210;BME280;14721;42.668;23.386;2023-05-12T02:27:10;95603.75;;;7.24;100.00
27210;BME280;14721;42.668;23.386;2023-05-12T02:29:35;95595.78;;;7.09;100.00
27210;BME280;14721;42.668;23.386;2023-05-12T02:32:02;95595.53;;;6.98;100.00
27210;BME280;14721;42.668;23.386;2023-05-12T02:34:28;95599.91;;;6.99;100.00
27210;BME280;14721;42.668;23.386;2023-05-12T02:36:54;95598.38;;;6.95;100.00
27210;BME280;14721;42.668;23.386;2023-05-12T02:39:20;95595.19;;;6.88;100.00
27210;BME280;14721;42.668;23.386;2023-05-12T02:41:45;95594.16;;;6.91;100.00
27210;BME280;14721;42.668;23.386;2023-05-12T02:44:11;95600.50;;;6.88;100.00
27210;BME280;14721;42.668;23.386;2023-05-12T02:46:36;95597.41;;;6.96;100.00
27210;BME280;14721;42.668;23.386;2023-05-12T02:49:03;95590.81;;;7.03;100.00
27210;BME280;14721;42.668;23.386;2023-05-12T02:51:29;95588.31;;;7.00;100.00
27210;BME280;14721;42.668;23.386;2023-05-12T02:53:54;95597.50;;;6.94;100.00
27210;BME280;14721;42.668;23.386;2023-05-12T02:56:20;95595.34;;;6.85;100.00
27210;BME280;14721;42.668;23.386;2023-05-12T02:58:47;95595.53;;;6.82;100.00
27210;BME280;14721;42.668;23.386;2023-05-12T03:01:12;95590.13;;;6.84;100.00
27210;BME280;14721;42.668;23.386;2023-05-12T03:03:39;95592.00;;;6.82;100.00
27210;BME280;14721;42.668;23.386;2023-05-12T03:06:05;95591.09;;;6.83;100.00
27210;BME280;14721;42.668;23.386;2023-05-12T03:08:30;95600.75;;;6.84;100.00
27210;BME280;14721;42.668;23.386;2023-05-12T03:10:56;95596.66;;;6.78;100.00
27210;BME280;14721;42.668;23.386;2023-05-12T03:13:24;95599.38;;;6.92;100.00
27210;BME280;14721;42.668;23.386;2023-05-12T03:15:50;95591.75;;;6.86;100.00
27210;BME280;14721;42.668;23.386;2023-05-12T03:18:15;95599.03;;;6.98;100.00
27210;BME280;14721;42.668;23.386;2023-05-12T03:20:41;95596.63;;;6.94;100.00
27210;BME280;14721;42.668;23.386;2023-05-12T03:23:06;95606.19;;;6.98;100.00
27210;BME280;14721;42.668;23.386;2023-05-12T03:25:33;95598.88;;;7.01;100.00
27210;BME280;14721;42.668;23.386;2023-05-12T03:28:01;95599.81;;;7.00;100.00
27210;BME280;14721;42.668;23.386;2023-05-12T03:30:28;95600.69;;;7.01;100.00
27210;BME280;14721;42.668;23.386;2023-05-12T03:32:53;95606.09;;;6.99;100.00
27210;BME280;14721;42.668;23.386;2023-05-12T03:35:19;95613.44;;;6.94;100.00
27210;BME280;14721;42.668;23.386;2023-05-12T03:37:45;95613.09;;;7.00;100.00
27210;BME280;14721;42.668;23.386;2023-05-12T03:40:13;95614.72;;;7.03;100.00
27210;BME280;14721;42.668;23.386;2023-05-12T03:42:43;95614.47;;;7.07;100.00
27210;BME280;14721;42.668;23.386;2023-05-12T03:45:10;95612.75;;;7.06;100.00
27210;BME280;14721;42.668;23.386;2023-05-12T03:47:35;95616.38;;;7.05;100.00
27210;BME280;14721;42.668;23.386;2023-05-12T03:50:01;95624.78;;;6.98;100.00
27210;BME280;14721;42.668;23.386;2023-05-12T03:52:27;95622.03;;;6.99;100.00
27210;BME280;14721;42.668;23.386;2023-05-12T03:54:53;95621.84;;;7.02;100.00
27210;BME280;14721;42.668;23.386;2023-05-12T03:57:18;95613.53;;;7.08;100.00
27210;BME280;14721;42.668;23.386;2023-05-12T03:59:44;95616.38;;;7.05;100.00
27210;BME280;14721;42.668;23.386;2023-05-12T04:02:10;95604.97;;;7.03;100.00
27210;BME280;14721;42.668;23.386;2023-05-12T04:04:37;95617.56;;;7.15;100.00
27210;BME280;14721;42.668;23.386;2023-05-12T04:07:03;95611.22;;;7.18;100.00
27210;BME280;14721;42.668;23.386;2023-05-12T04:09:32;95621.91;;;7.16;100.00
27210;BME280;14721;42.668;23.386;2023-05-12T04:11:57;95620.91;;;7.19;100.00
27210;BME280;14721;42.668;23.386;2023-05-12T04:14:23;95625.53;;;7.31;100.00
27210;BME280;14721;42.668;23.386;2023-05-12T04:16:49;95621.91;;;7.32;100.00
27210;BME280;14721;42.668;23.386;2023-05-12T04:19:15;95641.22;;;7.35;100.00
27210;BME280;14721;42.668;23.386;2023-05-12T04:21:40;95638.38;;;7.38;100.00
27210;BME280;14721;42.668;23.386;2023-05-12T04:24:06;95622.34;;;7.40;100.00
27210;BME280;14721;42.668;23.386;2023-05-12T04:26:32;95625.59;;;7.45;100.00
27210;BME280;14721;42.668;23.386;2023-05-12T04:28:57;95635.13;;;7.49;100.00
27210;BME280;14721;42.668;23.386;2023-05-12T04:31:23;95624.53;;;7.63;100.00
27210;BME280;14721;42.668;23.386;2023-05-12T04:33:48;95629.00;;;7.62;100.00
27210;BME280;14721;42.668;23.386;2023-05-12T04:36:16;95643.41;;;7.58;100.00
27210;BME280;14721;42.668;23.386;2023-05-12T04:38:41;95631.75;;;7.61;100.00
27210;BME280;14721;42.668;23.386;2023-05-12T04:41:07;95638.59;;;7.65;100.00
27210;BME280;14721;42.668;23.386;2023-05-12T04:43:33;95627.34;;;7.76;100.00
27210;BME280;14721;42.668;23.386;2023-05-12T04:45:59;95621.06;;;7.77;100.00
27210;BME280;14721;42.668;23.386;2023-05-12T04:48:26;95613.00;;;7.78;100.00
27210;BME280;14721;42.668;23.386;2023-05-12T04:50:51;95630.03;;;7.90;100.00
27210;BME280;14721;42.668;23.386;2023-05-12T04:53:16;95634.97;;;7.96;100.00
27210;BME280;14721;42.668;23.386;2023-05-12T04:55:42;95635.94;;;7.95;100.00
27210;BME280;14721;42.668;23.386;2023-05-12T04:58:13;95633.28;;;7.95;100.00
27210;BME280;14721;42.668;23.386;2023-05-12T05:00:41;95640.13;;;7.99;100.00
27210;BME280;14721;42.668;23.386;2023-05-12T05:03:07;95637.63;;;7.96;100.00
27210;BME280;14721;42.668;23.386;2023-05-12T05:05:33;95641.94;;;7.98;100.00
27210;BME280;14721;42.668;23.386;2023-05-12T05:07:59;95635.75;;;7.98;100.00
27210;BME280;14721;42.668;23.386;2023-05-12T05:10:25;95638.31;;;7.99;100.00
27210;BME280;14721;42.668;23.386;2023-05-12T05:12:51;95628.38;;;8.03;100.00
27210;BME280;14721;42.668;23.386;2023-05-12T05:15:17;95629.81;;;8.08;100.00
27210;BME280;14721;42.668;23.386;2023-05-12T05:17:43;95638.47;;;8.12;100.00
27210;BME280;14721;42.668;23.386;2023-05-12T05:20:13;95623.06;;;8.17;100.00
27210;BME280;14721;42.668;23.386;2023-05-12T05:22:38;95618.69;;;8.16;100.00
27210;BME280;14721;42.668;23.386;2023-05-12T05:25:04;95639.13;;;8.15;100.00
27210;BME280;14721;42.668;23.386;2023-05-12T05:27:30;95645.50;;;8.13;100.00
27210;BME280;14721;42.668;23.386;2023-05-12T05:29:56;95648.53;;;8.07;100.00
27210;BME280;14721;42.668;23.386;2023-05-12T05:32:21;95641.41;;;8.07;100.00
27210;BME280;14721;42.668;23.386;2023-05-12T05:34:56;95646.28;;;8.15;100.00
27210;BME280;14721;42.668;23.386;2023-05-12T05:37:37;95626.69;;;8.16;100.00
27210;BME280;14721;42.668;23.386;2023-05-12T05:40:24;95651.00;;;8.10;100.00
27210;BME280;14721;42.668;23.386;2023-05-12T05:42:51;95639.81;;;8.19;100.00
27210;BME280;14721;42.668;23.386;2023-05-12T05:45:17;95644.53;;;8.29;100.00
27210;BME280;14721;42.668;23.386;2023-05-12T05:47:48;95642.72;;;8.30;100.00
27210;BME280;14721;42.668;23.386;2023-05-12T05:50:18;95648.97;;;8.29;100.00
27210;BME280;14721;42.668;23.386;2023-05-12T05:52:44;95648.22;;;8.27;100.00
27210;BME280;14721;42.668;23.386;2023-05-12T05:55:36;95645.28;;;8.31;100.00
27210;BME280;14721;42.668;23.386;2023-05-12T05:58:15;95645.75;;;8.38;100.00
27210;BME280;14721;42.668;23.386;2023-05-12T06:04:32;95648.81;;;8.46;100.00
27210;BME280;14721;42.668;23.386;2023-05-12T06:06:58;95654.09;;;8.61;100.00
27210;BME280;14721;42.668;23.386;2023-05-12T06:09:28;95648.09;;;8.72;100.00
27210;BME280;14721;42.668;23.386;2023-05-12T06:12:32;95656.38;;;8.67;100.00
27210;BME280;14721;42.668;23.386;2023-05-12T06:18:44;95648.56;;;8.64;100.00
27210;BME280;14721;42.668;23.386;2023-05-12T06:21:09;95659.59;;;8.72;100.00
27210;BME280;14721;42.668;23.386;2023-05-12T06:23:35;95658.47;;;8.76;100.00
27210;BME280;14721;42.668;23.386;2023-05-12T06:26:00;95651.69;;;8.85;99.93
27210;BME280;14721;42.668;23.386;2023-05-12T06:28:32;95661.41;;;8.86;98.32
27210;BME280;14721;42.668;23.386;2023-05-12T06:30:58;95661.19;;;8.89;97.91
27210;BME280;14721;42.668;23.386;2023-05-12T06:33:33;95656.16;;;8.84;98.05
27210;BME280;14721;42.668;23.386;2023-05-12T06:36:15;95669.66;;;8.81;97.49
27210;BME280;14721;42.668;23.386;2023-05-12T06:38:59;95670.94;;;8.90;97.93
27210;BME280;14721;42.668;23.386;2023-05-12T06:41:34;95664.94;;;8.86;96.69
27210;BME280;14721;42.668;23.386;2023-05-12T06:44:20;95671.13;;;8.87;96.66
27210;BME280;14721;42.668;23.386;2023-05-12T06:46:46;95677.19;;;8.89;95.95
27210;BME280;14721;42.668;23.386;2023-05-12T06:49:11;95674.91;;;8.97;96.04
27210;BME280;14721;42.668;23.386;2023-05-12T06:51:40;95675.84;;;9.10;95.85
27210;BME280;14721;42.668;23.386;2023-05-12T06:54:07;95677.78;;;9.08;95.28
27210;BME280;14721;42.668;23.386;2023-05-12T06:56:33;95684.81;;;9.09;94.65
27210;BME280;14721;42.668;23.386;2023-05-12T06:58:59;95680.06;;;9.14;94.36
27210;BME280;14721;42.668;23.386;2023-05-12T07:01:27;95685.53;;;9.25;94.03
27210;BME280;14721;42.668;23.386;2023-05-12T07:03:53;95679.09;;;9.29;93.79
27210;BME280;14721;42.668;23.386;2023-05-12T07:06:19;95685.44;;;9.26;93.24
27210;BME280;14721;42.668;23.386;2023-05-12T07:08:45;95678.91;;;9.32;93.22
27210;BME280;14721;42.668;23.386;2023-05-12T07:11:10;95680.59;;;9.33;92.55
27210;BME280;14721;42.668;23.386;2023-05-12T07:13:36;95676.03;;;9.35;93.09
27210;BME280;14721;42.668;23.386;2023-05-12T07:16:03;95681.63;;;9.44;92.60
27210;BME280;14721;42.668;23.386;2023-05-12T07:18:28;95683.16;;;9.48;92.09
27210;BME280;14721;42.668;23.386;2023-05-12T07:20:54;95683.97;;;9.49;91.68
27210;BME280;14721;42.668;23.386;2023-05-12T07:23:20;95676.47;;;9.55;91.92
27210;BME280;14721;42.668;23.386;2023-05-12T07:25:45;95683.19;;;9.61;91.15
27210;BME280;14721;42.668;23.386;2023-05-12T07:28:11;95686.25;;;9.55;91.00
27210;BME280;14721;42.668;23.386;2023-05-12T07:30:36;95683.88;;;9.50;91.27
27210;BME280;14721;42.668;23.386;2023-05-12T07:33:02;95695.81;;;9.59;90.63
27210;BME280;14721;42.668;23.386;2023-05-12T07:35:28;95682.75;;;9.81;90.75
27210;BME280;14721;42.668;23.386;2023-05-12T07:37:55;95701.31;;;9.97;89.79
27210;BME280;14721;42.668;23.386;2023-05-12T07:40:21;95690.66;;;9.83;89.12
27210;BME280;14721;42.668;23.386;2023-05-12T07:42:53;95684.47;;;9.82;90.01
27210;BME280;14721;42.668;23.386;2023-05-12T07:45:21;95687.56;;;10.03;89.99
27210;BME280;14721;42.668;23.386;2023-05-12T07:47:49;95690.53;;;10.25;87.90
27210;BME280;14721;42.668;23.386;2023-05-12T07:50:16;95691.06;;;10.30;87.25
27210;BME280;14721;42.668;23.386;2023-05-12T07:52:49;95682.94;;;10.31;86.13
27210;BME280;14721;42.668;23.386;2023-05-12T07:55:16;95670.47;;;10.44;85.83
27210;BME280;14721;42.668;23.386;2023-05-12T07:57:41;95682.13;;;10.56;85.32
27210;BME280;14721;42.668;23.386;2023-05-12T08:00:07;95679.50;;;10.68;84.70
27210;BME280;14721;42.668;23.386;2023-05-12T08:02:35;95670.59;;;10.55;83.76
27210;BME280;14721;42.668;23.386;2023-05-12T08:05:01;95678.84;;;10.77;84.38
27210;BME280;14721;42.668;23.386;2023-05-12T08:07:26;95676.28;;;11.01;83.22
27210;BME280;14721;42.668;23.386;2023-05-12T08:09:51;95674.47;;;11.01;81.35
27210;BME280;14721;42.668;23.386;2023-05-12T08:12:18;95675.53;;;10.99;81.41
27210;BME280;14721;42.668;23.386;2023-05-12T08:14:44;95674.66;;;11.23;80.58
27210;BME280;14721;42.668;23.386;2023-05-12T08:17:09;95681.38;;;11.41;79.59
27210;BME280;14721;42.668;23.386;2023-05-12T08:19:34;95682.50;;;11.50;77.17
27210;BME280;14721;42.668;23.386;2023-05-12T08:22:00;95686.06;;;11.63;77.26
27210;BME280;14721;42.668;23.386;2023-05-12T08:24:27;95680.59;;;11.65;76.56
27210;BME280;14721;42.668;23.386;2023-05-12T08:26:52;95686.47;;;11.70;76.21
27210;BME280;14721;42.668;23.386;2023-05-12T08:29:18;95685.78;;;11.79;75.43
27210;BME280;14721;42.668;23.386;2023-05-12T08:31:43;95691.13;;;11.79;74.97
27210;BME280;14721;42.668;23.386;2023-05-12T08:34:08;95677.81;;;11.54;75.02
27210;BME280;14721;42.668;23.386;2023-05-12T08:36:34;95677.59;;;11.57;75.47
27210;BME280;14721;42.668;23.386;2023-05-12T08:39:01;95676.84;;;11.67;74.91
27210;BME280;14721;42.668;23.386;2023-05-12T08:44:17;95688.66;;;12.12;73.32
27210;BME280;14721;42.668;23.386;2023-05-12T08:46:43;95677.53;;;12.29;71.61
27210;BME280;14721;42.668;23.386;2023-05-12T08:49:09;95682.84;;;12.41;70.13
27210;BME280;14721;42.668;23.386;2023-05-12T08:51:39;95684.78;;;12.39;70.41
27210;BME280;14721;42.668;23.386;2023-05-12T08:54:07;95672.38;;;12.49;69.63
27210;BME280;14721;42.668;23.386;2023-05-12T08:56:33;95667.94;;;12.61;69.41
27210;BME280;14721;42.668;23.386;2023-05-12T08:58:59;95665.13;;;12.73;69.08
27210;BME280;14721;42.668;23.386;2023-05-12T09:01:27;95661.34;;;13.21;67.82
27210;BME280;14721;42.668;23.386;2023-05-12T09:03:54;95677.53;;;13.09;66.46
27210;BME280;14721;42.668;23.386;2023-05-12T09:06:20;95675.97;;;13.06;66.87
27210;BME280;14721;42.668;23.386;2023-05-12T09:08:46;95670.34;;;13.09;66.88
27210;BME280;14721;42.668;23.386;2023-05-12T09:11:12;95671.69;;;13.04;66.93
27210;BME280;14721;42.668;23.386;2023-05-12T09:16:22;95669.88;;;13.15;65.57
27210;BME280;14721;42.668;23.386;2023-05-12T09:18:51;95657.78;;;13.21;65.86
27210;BME280;14721;42.668;23.386;2023-05-12T09:21:17;95663.19;;;13.43;65.04
27210;BME280;14721;42.668;23.386;2023-05-12T09:24:03;95653.41;;;13.31;64.06
27210;BME280;14721;42.668;23.386;2023-05-12T09:26:42;95652.19;;;13.46;65.04
27210;BME280;14721;42.668;23.386;2023-05-12T09:29:11;95666.56;;;13.45;65.19
27210;BME280;14721;42.668;23.386;2023-05-12T09:31:37;95646.56;;;13.38;65.01
27210;BME280;14721;42.668;23.386;2023-05-12T09:34:09;95645.84;;;13.58;65.32
27210;BME280;14721;42.668;23.386;2023-05-12T09:36:35;95654.47;;;13.73;65.66
27210;BME280;14721;42.668;23.386;2023-05-12T09:39:02;95649.66;;;13.87;64.86
27210;BME280;14721;42.668;23.386;2023-05-12T09:41:38;95638.53;;;14.45;66.16
27210;BME280;14721;42.668;23.386;2023-05-12T09:44:05;95642.41;;;14.93;61.82
27210;BME280;14721;42.668;23.386;2023-05-12T09:46:32;95648.63;;;14.94;63.69
27210;BME280;14721;42.668;23.386;2023-05-12T09:48:58;95647.91;;;15.13;62.37
27210;BME280;14721;42.668;23.386;2023-05-12T09:51:25;95644.91;;;15.36;61.00
27210;BME280;14721;42.668;23.386;2023-05-12T09:53:52;95658.50;;;15.35;60.87
27210;BME280;14721;42.668;23.386;2023-05-12T09:56:18;95652.84;;;15.68;60.24
27210;BME280;14721;42.668;23.386;2023-05-12T09:58:46;95642.47;;;16.03;60.41
27210;BME280;14721;42.668;23.386;2023-05-12T10:01:17;95657.38;;;16.07;59.64
27210;BME280;14721;42.668;23.386;2023-05-12T10:03:45;95651.31;;;15.75;57.51
27210;BME280;14721;42.668;23.386;2023-05-12T10:06:14;95645.28;;;15.92;57.72
27210;BME280;14721;42.668;23.386;2023-05-12T10:08:50;95642.78;;;16.38;56.65
27210;BME280;14721;42.668;23.386;2023-05-12T10:11:18;95633.88;;;16.85;57.24
27210;BME280;14721;42.668;23.386;2023-05-12T10:13:44;95628.78;;;16.53;56.57
27210;BME280;14721;42.668;23.386;2023-05-12T10:16:10;95614.56;;;16.51;57.32
27210;BME280;14721;42.668;23.386;2023-05-12T10:18:36;95619.13;;;16.70;56.48
27210;BME280;14721;42.668;23.386;2023-05-12T10:21:02;95629.66;;;17.29;54.11
27210;BME280;14721;42.668;23.386;2023-05-12T10:23:27;95619.41;;;17.78;54.36
27210;BME280;14721;42.668;23.386;2023-05-12T10:25:54;95630.34;;;17.77;54.16
27210;BME280;14721;42.668;23.386;2023-05-12T10:28:23;95624.75;;;17.61;53.78
27210;BME280;14721;42.668;23.386;2023-05-12T10:30:50;95630.34;;;17.50;52.49
27210;BME280;14721;42.668;23.386;2023-05-12T10:33:16;95608.31;;;17.45;51.65
27210;BME280;14721;42.668;23.386;2023-05-12T10:35:42;95609.34;;;17.98;53.54
27210;BME280;14721;42.668;23.386;2023-05-12T10:38:13;95605.56;;;18.08;51.87
27210;BME280;14721;42.668;23.386;2023-05-12T10:41:00;95617.47;;;17.25;50.74
27210;BME280;14721;42.668;23.386;2023-05-12T10:48:58;95609.31;;;16.31;51.63
27210;BME280;14721;42.668;23.386;2023-05-12T10:51:29;95611.19;;;15.72;52.80
27210;BME280;14721;42.668;23.386;2023-05-12T10:54:04;95608.56;;;15.21;54.30
27210;BME280;14721;42.668;23.386;2023-05-12T10:56:40;95605.91;;;15.00;55.49
27210;BME280;14721;42.668;23.386;2023-05-12T10:59:17;95616.56;;;14.81;56.24
27210;BME280;14721;42.668;23.386;2023-05-12T11:02:01;95617.28;;;15.04;55.98
27210;BME280;14721;42.668;23.386;2023-05-12T11:07:29;95614.47;;;15.15;56.13
27210;BME280;14721;42.668;23.386;2023-05-12T11:09:58;95601.25;;;15.33;56.27
27210;BME280;14721;42.668;23.386;2023-05-12T11:12:25;95623.28;;;15.87;54.23
27210;BME280;14721;42.668;23.386;2023-05-12T11:14:51;95619.66;;;15.67;53.32
27210;BME280;14721;42.668;23.386;2023-05-12T11:17:17;95619.63;;;15.48;53.29
27210;BME280;14721;42.668;23.386;2023-05-12T11:19:48;95623.81;;;15.71;54.33
27210;BME280;14721;42.668;23.386;2023-05-12T11:22:19;95616.06;;;15.97;54.73
27210;BME280;14721;42.668;23.386;2023-05-12T11:24:46;95614.09;;;16.08;53.53
27210;BME280;14721;42.668;23.386;2023-05-12T11:27:16;95622.78;;;16.12;52.32
27210;BME280;14721;42.668;23.386;2023-05-12T11:29:43;95630.63;;;16.53;50.26
27210;BME280;14721;42.668;23.386;2023-05-12T11:32:10;95629.91;;;16.60;49.54
27210;BME280;14721;42.668;23.386;2023-05-12T11:34:37;95625.66;;;16.67;50.06
27210;BME280;14721;42.668;23.386;2023-05-12T11:37:04;95626.38;;;16.50;48.85
27210;BME280;14721;42.668;23.386;2023-05-12T11:39:31;95628.63;;;16.45;50.31
27210;BME280;14721;42.668;23.386;2023-05-12T11:42:04;95625.19;;;16.34;49.25
27210;BME280;14721;42.668;23.386;2023-05-12T11:44:30;95632.72;;;16.40;49.89
27210;BME280;14721;42.668;23.386;2023-05-12T11:46:58;95629.56;;;16.16;50.52
27210;BME280;14721;42.668;23.386;2023-05-12T11:49:25;95619.72;;;15.77;51.28
27210;BME280;14721;42.668;23.386;2023-05-12T11:51:53;95628.56;;;15.58;52.11
27210;BME280;14721;42.668;23.386;2023-05-12T11:54:20;95622.69;;;15.74;52.59
27210;BME280;14721;42.668;23.386;2023-05-12T11:56:47;95621.19;;;16.00;52.31
27210;BME280;14721;42.668;23.386;2023-05-12T11:59:24;95618.78;;;16.16;51.43
27210;BME280;14721;42.668;23.386;2023-05-12T12:01:50;95621.41;;;15.78;51.81
27210;BME280;14721;42.668;23.386;2023-05-12T12:04:16;95614.59;;;15.74;53.48
27210;BME280;14721;42.668;23.386;2023-05-12T12:06:43;95619.19;;;16.02;54.02
27210;BME280;14721;42.668;23.386;2023-05-12T12:09:09;95614.84;;;16.39;54.13
27210;BME280;14721;42.668;23.386;2023-05-12T12:11:34;95610.03;;;16.71;51.86
27210;BME280;14721;42.668;23.386;2023-05-12T12:14:00;95620.53;;;16.83;52.27
27210;BME280;14721;42.668;23.386;2023-05-12T12:16:28;95618.84;;;16.63;53.01
27210;BME280;14721;42.668;23.386;2023-05-12T12:18:54;95630.03;;;16.40;49.23
27210;BME280;14721;42.668;23.386;2023-05-12T12:21:19;95629.75;;;16.24;49.42
27210;BME280;14721;42.668;23.386;2023-05-12T12:23:46;95631.41;;;16.15;49.87
27210;BME280;14721;42.668;23.386;2023-05-12T12:26:11;95622.59;;;16.04;51.28
27210;BME280;14721;42.668;23.386;2023-05-12T12:28:41;95634.94;;;15.97;50.60
27210;BME280;14721;42.668;23.386;2023-05-12T12:31:07;95632.88;;;15.70;50.75
27210;BME280;14721;42.668;23.386;2023-05-12T12:33:32;95613.91;;;15.42;52.19
27210;BME280;14721;42.668;23.386;2023-05-12T12:35:58;95624.69;;;15.42;51.79
27210;BME280;14721;42.668;23.386;2023-05-12T12:38:23;95627.88;;;15.66;52.42
27210;BME280;14721;42.668;23.386;2023-05-12T12:40:48;95630.06;;;15.81;51.91
27210;BME280;14721;42.668;23.386;2023-05-12T12:43:14;95629.88;;;15.64;51.48
27210;BME280;14721;42.668;23.386;2023-05-12T12:45:39;95616.78;;;15.50;51.58
27210;BME280;14721;42.668;23.386;2023-05-12T12:48:05;95628.84;;;15.25;52.72
27210;BME280;14721;42.668;23.386;2023-05-12T12:50:35;95632.75;;;15.42;52.77
27210;BME280;14721;42.668;23.386;2023-05-12T12:53:01;95628.44;;;15.30;52.85
27210;BME280;14721;42.668;23.386;2023-05-12T12:55:26;95622.28;;;15.18;52.35
27210;BME280;14721;42.668;23.386;2023-05-12T12:57:52;95626.25;;;15.14;52.36
27210;BME280;14721;42.668;23.386;2023-05-12T13:00:17;95630.75;;;15.13;52.87
27210;BME280;14721;42.668;23.386;2023-05-12T13:02:44;95622.69;;;15.13;51.99
27210;BME280;14721;42.668;23.386;2023-05-12T13:05:09;95618.75;;;15.18;51.16
27210;BME280;14721;42.668;23.386;2023-05-12T13:07:35;95624.41;;;15.15;51.55
27210;BME280;14721;42.668;23.386;2023-05-12T13:10:02;95609.81;;;15.17;51.50
27210;BME280;14721;42.668;23.386;2023-05-12T13:12:28;95606.25;;;15.17;51.55
27210;BME280;14721;42.668;23.386;2023-05-12T13:14:55;95614.34;;;15.17;52.15
27210;BME280;14721;42.668;23.386;2023-05-12T13:17:21;95607.34;;;15.35;51.50